createdAt,value
2018-06-13T01:30:49.448Z,1012.36
2018-06-13T01:30:50.019Z,1012.35
2018-06-13T01:30:50.618Z,1012.36
2018-06-13T01:30:51.219Z,1012.35
2018-06-13T01:30:51.818Z,1012.38
2018-06-13T01:30:52.417Z,1012.38
2018-06-13T01:30:53.017Z,1012.37
2018-06-13T01:30:53.619Z,1012.34
2018-06-13T01:31:47.100Z,1012.36
2018-06-13T01:31:47.675Z,1012.31
2018-06-13T01:31:48.270Z,1012.35
2018-06-13T01:31:48.872Z,1012.30
2018-06-13T01:31:49.469Z,1012.30
2018-06-13T01:31:50.070Z,1012.31
2018-06-13T01:31:50.670Z,1012.31
2018-06-13T01:31:51.269Z,1012.30
2018-06-13T01:32:45.775Z,1012.34
2018-06-13T01:32:46.346Z,1012.33
2018-06-13T01:32:46.945Z,1012.35
2018-06-13T01:32:47.550Z,1012.32
2018-06-13T01:32:48.145Z,1012.36
2018-06-13T01:32:48.745Z,1012.33
2018-06-13T01:32:49.345Z,1012.37
2018-06-13T01:32:49.944Z,1012.33
2018-06-13T01:33:44.453Z,1012.39
2018-06-13T01:33:45.022Z,1012.37
2018-06-13T01:33:45.622Z,1012.39
2018-06-13T01:33:46.223Z,1012.40
2018-06-13T01:33:46.821Z,1012.40
2018-06-13T01:33:47.421Z,1012.35
2018-06-13T01:33:48.022Z,1012.37
2018-06-13T01:33:48.621Z,1012.38
2018-06-13T01:34:43.131Z,1012.37
2018-06-13T01:34:43.698Z,1012.34
2018-06-13T01:34:44.305Z,1012.31
2018-06-13T01:34:44.896Z,1012.33
2018-06-13T01:34:45.499Z,1012.33
2018-06-13T01:34:46.098Z,1012.31
2018-06-13T01:34:46.696Z,1012.35
2018-06-13T01:34:47.296Z,1012.34
2018-06-13T01:35:41.804Z,1012.33
2018-06-13T01:35:42.374Z,1012.33
2018-06-13T01:35:42.973Z,1012.30
2018-06-13T01:35:43.573Z,1012.33
2018-06-13T01:35:44.174Z,1012.32
2018-06-13T01:35:44.773Z,1012.34
2018-06-13T01:35:45.375Z,1012.34
2018-06-13T01:35:45.973Z,1012.35
2018-06-13T01:36:39.457Z,1012.34
2018-06-13T01:36:40.032Z,1012.36
2018-06-13T01:36:40.631Z,1012.36
2018-06-13T01:36:41.227Z,1012.39
2018-06-13T01:36:41.827Z,1012.35
2018-06-13T01:36:42.427Z,1012.31
2018-06-13T01:36:43.026Z,1012.36
2018-06-13T01:36:43.631Z,1012.32
2018-06-13T01:37:38.133Z,1012.33
2018-06-13T01:37:38.703Z,1012.35
2018-06-13T01:37:39.304Z,1012.36
2018-06-13T01:37:39.904Z,1012.37
2018-06-13T01:37:40.502Z,1012.35
2018-06-13T01:37:41.102Z,1012.35
2018-06-13T01:37:41.701Z,1012.37
2018-06-13T01:37:42.303Z,1012.36
2018-06-13T01:38:35.785Z,1012.34
2018-06-13T01:38:36.354Z,1012.32
2018-06-13T01:38:36.955Z,1012.36
2018-06-13T01:38:37.556Z,1012.35
2018-06-13T01:38:38.154Z,1012.33
2018-06-13T01:38:38.753Z,1012.33
2018-06-13T01:38:39.354Z,1012.33
2018-06-13T01:38:39.953Z,1012.35
2018-06-13T01:39:33.437Z,1012.34
2018-06-13T01:39:34.007Z,1012.33
2018-06-13T01:39:34.607Z,1012.34
2018-06-13T01:39:35.207Z,1012.32
2018-06-13T01:39:35.806Z,1012.31
2018-06-13T01:39:36.406Z,1012.32
2018-06-13T01:39:37.006Z,1012.32
2018-06-13T01:39:37.604Z,1012.32
2018-06-13T01:40:32.111Z,1012.30
2018-06-13T01:40:32.682Z,1012.31
2018-06-13T01:40:33.281Z,1012.33
2018-06-13T01:40:33.881Z,1012.33
2018-06-13T01:40:34.481Z,1012.28
2018-06-13T01:40:35.081Z,1012.35
2018-06-13T01:40:35.681Z,1012.30
2018-06-13T01:40:36.282Z,1012.35
2018-06-13T01:41:30.790Z,1012.32
2018-06-13T01:41:31.359Z,1012.32
2018-06-13T01:41:31.958Z,1012.34
2018-06-13T01:41:32.557Z,1012.32
2018-06-13T01:41:33.157Z,1012.35
2018-06-13T01:41:33.758Z,1012.34
2018-06-13T01:41:34.357Z,1012.34
2018-06-13T01:41:34.957Z,1012.32
2018-06-13T01:42:28.443Z,1012.33
2018-06-13T01:42:29.010Z,1012.32
2018-06-13T01:42:29.610Z,1012.33
2018-06-13T01:42:30.210Z,1012.37
2018-06-13T01:42:30.811Z,1012.33
2018-06-13T01:42:31.409Z,1012.32
2018-06-13T01:42:32.010Z,1012.32
2018-06-13T01:42:32.608Z,1012.31
2018-06-13T01:43:27.116Z,1012.34
2018-06-13T01:43:27.687Z,1012.30
2018-06-13T01:43:28.292Z,1012.30
2018-06-13T01:43:28.949Z,1012.29
2018-06-13T01:43:29.485Z,1012.28
2018-06-13T01:43:30.085Z,1012.29
2018-06-13T01:43:30.684Z,1012.30
2018-06-13T01:43:31.285Z,1012.30
2018-06-13T01:44:25.789Z,1012.30
2018-06-13T01:44:26.363Z,1012.28
2018-06-13T01:44:26.960Z,1012.24
2018-06-13T01:44:27.561Z,1012.26
2018-06-13T01:44:28.161Z,1012.29
2018-06-13T01:44:28.762Z,1012.31
2018-06-13T01:44:29.361Z,1012.29
2018-06-13T01:44:29.962Z,1012.28
2018-06-13T01:45:24.468Z,1012.29
2018-06-13T01:45:25.038Z,1012.25
2018-06-13T01:45:25.636Z,1012.23
2018-06-13T01:45:26.237Z,1012.27
2018-06-13T01:45:26.835Z,1012.26
2018-06-13T01:45:27.435Z,1012.20
2018-06-13T01:45:28.037Z,1012.25
2018-06-13T01:45:28.636Z,1012.25
2018-06-13T01:46:22.119Z,1012.27
2018-06-13T01:46:22.693Z,1012.25
2018-06-13T01:46:23.290Z,1012.23
2018-06-13T01:46:23.890Z,1012.23
2018-06-13T01:46:24.489Z,1012.24
2018-06-13T01:46:25.090Z,1012.24
2018-06-13T01:46:25.690Z,1012.26
2018-06-13T01:46:26.290Z,1012.26
2018-06-13T01:47:19.770Z,1012.28
2018-06-13T01:47:20.343Z,1012.24
2018-06-13T01:47:20.941Z,1012.24
2018-06-13T01:47:21.541Z,1012.22
2018-06-13T01:47:22.144Z,1012.25
2018-06-13T01:47:22.743Z,1012.26
2018-06-13T01:47:23.341Z,1012.23
2018-06-13T01:47:23.946Z,1012.23
2018-06-13T01:48:18.447Z,1012.23
2018-06-13T01:48:19.016Z,1012.20
2018-06-13T01:48:19.616Z,1012.19
2018-06-13T01:48:20.216Z,1012.23
2018-06-13T01:48:20.815Z,1012.18
2018-06-13T01:48:21.416Z,1012.19
2018-06-13T01:48:22.016Z,1012.21
2018-06-13T01:48:22.615Z,1012.22
2018-06-13T01:49:17.126Z,1012.21
2018-06-13T01:49:17.693Z,1012.22
2018-06-13T01:49:18.298Z,1012.21
2018-06-13T01:49:18.891Z,1012.22
2018-06-13T01:49:19.492Z,1012.20
2018-06-13T01:49:20.092Z,1012.20
2018-06-13T01:49:20.691Z,1012.23
2018-06-13T01:49:21.290Z,1012.23
2018-06-13T01:50:15.798Z,1012.19
2018-06-13T01:50:16.370Z,1012.20
2018-06-13T01:50:16.971Z,1012.19
2018-06-13T01:50:17.568Z,1012.18
2018-06-13T01:50:18.168Z,1012.17
2018-06-13T01:50:18.768Z,1012.20
2018-06-13T01:50:19.370Z,1012.18
2018-06-13T01:50:19.967Z,1012.20
2018-06-13T01:51:14.472Z,1012.19
2018-06-13T01:51:15.043Z,1012.17
2018-06-13T01:51:15.644Z,1012.14
2018-06-13T01:51:16.243Z,1012.19
2018-06-13T01:51:16.846Z,1012.15
2018-06-13T01:51:17.443Z,1012.22
2018-06-13T01:51:18.046Z,1012.17
2018-06-13T01:51:18.643Z,1012.18
2018-06-13T01:52:13.153Z,1012.23
2018-06-13T01:52:13.720Z,1012.20
2018-06-13T01:52:14.318Z,1012.24
2018-06-13T01:52:14.920Z,1012.21
2018-06-13T01:52:15.520Z,1012.21
2018-06-13T01:52:16.120Z,1012.21
2018-06-13T01:52:16.719Z,1012.21
2018-06-13T01:52:17.320Z,1012.23
2018-06-13T01:53:11.824Z,1012.22
2018-06-13T01:53:12.394Z,1012.20
2018-06-13T01:53:12.995Z,1012.19
2018-06-13T01:53:13.596Z,1012.21
2018-06-13T01:53:14.195Z,1012.22
2018-06-13T01:53:14.796Z,1012.21
2018-06-13T01:53:15.396Z,1012.23
2018-06-13T01:53:15.995Z,1012.22
2018-06-13T01:54:09.478Z,1012.21
2018-06-13T01:54:10.047Z,1012.21
2018-06-13T01:54:10.647Z,1012.24
2018-06-13T01:54:11.247Z,1012.18
2018-06-13T01:54:11.848Z,1012.21
2018-06-13T01:54:12.447Z,1012.23
2018-06-13T01:54:13.061Z,1012.22
2018-06-13T01:54:13.647Z,1012.23
2018-06-13T01:55:08.152Z,1012.22
2018-06-13T01:55:08.725Z,1012.21
2018-06-13T01:55:09.323Z,1012.23
2018-06-13T01:55:09.922Z,1012.20
2018-06-13T01:55:10.522Z,1012.22
2018-06-13T01:55:11.125Z,1012.24
2018-06-13T01:55:11.723Z,1012.24
2018-06-13T01:55:12.322Z,1012.25
2018-06-13T01:56:05.805Z,1012.21
2018-06-13T01:56:06.377Z,1012.23
2018-06-13T01:56:06.976Z,1012.19
2018-06-13T01:56:07.576Z,1012.23
2018-06-13T01:56:08.176Z,1012.19
2018-06-13T01:56:08.775Z,1012.25
2018-06-13T01:56:09.375Z,1012.23
2018-06-13T01:56:09.976Z,1012.19
2018-06-13T01:57:04.481Z,1012.19
2018-06-13T01:57:05.050Z,1012.20
2018-06-13T01:57:05.649Z,1012.17
2018-06-13T01:57:06.250Z,1012.17
2018-06-13T01:57:06.850Z,1012.20
2018-06-13T01:57:07.450Z,1012.21
2018-06-13T01:57:08.049Z,1012.21
2018-06-13T01:57:08.649Z,1012.21
2018-06-13T01:58:14.837Z,1012.20
2018-06-13T01:58:15.399Z,1012.18
2018-06-13T01:58:16.000Z,1012.19
2018-06-13T01:58:16.598Z,1012.19
2018-06-13T01:58:17.198Z,1012.18
2018-06-13T01:58:17.798Z,1012.17
2018-06-13T01:58:18.399Z,1012.20
2018-06-13T01:58:18.998Z,1012.19
2018-06-13T01:59:12.480Z,1012.21
2018-06-13T01:59:13.052Z,1012.15
2018-06-13T01:59:13.653Z,1012.19
2018-06-13T01:59:14.250Z,1012.17
2018-06-13T01:59:14.851Z,1012.20
2018-06-13T01:59:15.452Z,1012.17
2018-06-13T01:59:16.051Z,1012.19
2018-06-13T01:59:16.650Z,1012.19
2018-06-13T02:00:11.158Z,1012.18
2018-06-13T02:00:11.728Z,1012.16
2018-06-13T02:00:12.328Z,1012.15
2018-06-13T02:00:12.928Z,1012.16
2018-06-13T02:00:13.527Z,1012.18
2018-06-13T02:00:14.126Z,1012.18
2018-06-13T02:00:14.728Z,1012.16
2018-06-13T02:00:15.327Z,1012.16
2018-06-13T02:01:08.811Z,1012.18
2018-06-13T02:01:09.379Z,1012.21
2018-06-13T02:01:09.980Z,1012.19
2018-06-13T02:01:10.579Z,1012.20
2018-06-13T02:01:11.179Z,1012.20
2018-06-13T02:01:11.782Z,1012.20
2018-06-13T02:01:12.379Z,1012.16
2018-06-13T02:01:12.978Z,1012.23
2018-06-13T02:02:07.482Z,1012.22
2018-06-13T02:02:08.054Z,1012.23
2018-06-13T02:02:08.653Z,1012.23
2018-06-13T02:02:09.253Z,1012.21
2018-06-13T02:02:09.863Z,1012.19
2018-06-13T02:02:10.454Z,1012.24
2018-06-13T02:02:11.053Z,1012.25
2018-06-13T02:02:11.654Z,1012.23
2018-06-13T02:03:06.165Z,1012.24
2018-06-13T02:03:06.730Z,1012.21
2018-06-13T02:03:07.332Z,1012.21
2018-06-13T02:03:07.930Z,1012.23
2018-06-13T02:03:08.528Z,1012.23
2018-06-13T02:03:09.129Z,1012.23
2018-06-13T02:03:09.731Z,1012.24
2018-06-13T02:03:10.330Z,1012.25
2018-06-13T02:04:04.834Z,1012.23
2018-06-13T02:04:05.406Z,1012.25
2018-06-13T02:04:06.004Z,1012.26
2018-06-13T02:04:06.605Z,1012.26
2018-06-13T02:04:07.207Z,1012.26
2018-06-13T02:04:07.805Z,1012.26
2018-06-13T02:04:08.407Z,1012.27
2018-06-13T02:04:09.004Z,1012.25
2018-06-13T02:05:03.512Z,1012.27
2018-06-13T02:05:04.081Z,1012.31
2018-06-13T02:05:04.682Z,1012.32
2018-06-13T02:05:05.281Z,1012.31
2018-06-13T02:05:05.880Z,1012.27
2018-06-13T02:05:06.488Z,1012.29
2018-06-13T02:05:07.083Z,1012.26
2018-06-13T02:05:07.681Z,1012.30
2018-06-13T02:06:02.188Z,1012.29
2018-06-13T02:06:02.758Z,1012.31
2018-06-13T02:06:03.355Z,1012.31
2018-06-13T02:06:03.956Z,1012.32
2018-06-13T02:06:04.559Z,1012.29
2018-06-13T02:06:05.157Z,1012.31
2018-06-13T02:06:05.756Z,1012.34
2018-06-13T02:06:06.357Z,1012.33
2018-06-13T02:06:59.841Z,1012.32
2018-06-13T02:07:00.409Z,1012.31
2018-06-13T02:07:01.010Z,1012.33
2018-06-13T02:07:01.612Z,1012.33
2018-06-13T02:07:02.209Z,1012.34
2018-06-13T02:07:02.815Z,1012.33
2018-06-13T02:07:03.410Z,1012.33
2018-06-13T02:07:04.010Z,1012.33
2018-06-13T02:07:58.515Z,1012.36
2018-06-13T02:07:59.086Z,1012.34
2018-06-13T02:07:59.685Z,1012.37
2018-06-13T02:08:00.284Z,1012.34
2018-06-13T02:08:00.884Z,1012.35
2018-06-13T02:08:01.489Z,1012.34
2018-06-13T02:08:02.088Z,1012.36
2018-06-13T02:08:02.684Z,1012.37
2018-06-13T02:08:57.190Z,1012.38
2018-06-13T02:08:57.760Z,1012.36
2018-06-13T02:08:58.361Z,1012.36
2018-06-13T02:08:58.962Z,1012.37
2018-06-13T02:08:59.561Z,1012.37
2018-06-13T02:09:00.160Z,1012.39
2018-06-13T02:09:00.760Z,1012.38
2018-06-13T02:09:01.361Z,1012.39
2018-06-13T02:09:54.842Z,1012.39
2018-06-13T02:09:55.412Z,1012.39
2018-06-13T02:09:56.014Z,1012.38
2018-06-13T02:09:56.614Z,1012.38
2018-06-13T02:09:57.212Z,1012.39
2018-06-13T02:09:57.815Z,1012.42
2018-06-13T02:09:58.412Z,1012.40
2018-06-13T02:09:59.014Z,1012.39
2018-06-13T02:10:53.516Z,1012.43
2018-06-13T02:10:54.090Z,1012.44
2018-06-13T02:10:54.688Z,1012.42
2018-06-13T02:10:55.288Z,1012.43
2018-06-13T02:10:55.891Z,1012.44
2018-06-13T02:10:56.487Z,1012.43
2018-06-13T02:10:57.087Z,1012.45
2018-06-13T02:10:57.687Z,1012.43
2018-06-13T02:11:51.171Z,1012.45
2018-06-13T02:11:51.742Z,1012.44
2018-06-13T02:11:52.339Z,1012.41
2018-06-13T02:11:52.941Z,1012.45
2018-06-13T02:11:53.541Z,1012.43
2018-06-13T02:11:54.141Z,1012.39
2018-06-13T02:11:54.740Z,1012.39
2018-06-13T02:11:55.339Z,1012.42
2018-06-13T02:12:48.823Z,1012.45
2018-06-13T02:12:49.395Z,1012.41
2018-06-13T02:12:49.995Z,1012.42
2018-06-13T02:12:50.592Z,1012.43
2018-06-13T02:12:51.191Z,1012.44
2018-06-13T02:12:51.793Z,1012.41
2018-06-13T02:12:52.391Z,1012.41
2018-06-13T02:12:52.993Z,1012.43
2018-06-13T02:13:46.473Z,1012.40
2018-06-13T02:13:47.044Z,1012.44
2018-06-13T02:13:47.645Z,1012.43
2018-06-13T02:13:48.251Z,1012.41
2018-06-13T02:13:48.843Z,1012.42
2018-06-13T02:13:49.445Z,1012.42
2018-06-13T02:13:50.043Z,1012.42
2018-06-13T02:13:50.645Z,1012.39
2018-06-13T02:14:44.127Z,1012.41
2018-06-13T02:14:44.698Z,1012.37
2018-06-13T02:14:45.295Z,1012.41
2018-06-13T02:14:45.895Z,1012.35
2018-06-13T02:14:46.495Z,1012.41
2018-06-13T02:14:47.095Z,1012.39
2018-06-13T02:14:47.695Z,1012.39
2018-06-13T02:14:48.294Z,1012.39
2018-06-13T02:15:42.800Z,1012.38
2018-06-13T02:15:43.371Z,1012.38
2018-06-13T02:15:43.972Z,1012.41
2018-06-13T02:15:44.569Z,1012.39
2018-06-13T02:15:45.169Z,1012.40
2018-06-13T02:15:45.770Z,1012.37
2018-06-13T02:15:46.372Z,1012.37
2018-06-13T02:15:46.970Z,1012.39
2018-06-13T02:16:41.476Z,1012.36
2018-06-13T02:16:42.048Z,1012.34
2018-06-13T02:16:42.647Z,1012.35
2018-06-13T02:16:43.245Z,1012.34
2018-06-13T02:16:43.846Z,1012.32
2018-06-13T02:16:44.446Z,1012.32
2018-06-13T02:16:45.046Z,1012.33
2018-06-13T02:16:45.645Z,1012.36
2018-06-13T02:17:40.152Z,1012.34
2018-06-13T02:17:40.720Z,1012.33
2018-06-13T02:17:41.321Z,1012.34
2018-06-13T02:17:41.921Z,1012.34
2018-06-13T02:17:42.524Z,1012.36
2018-06-13T02:17:43.121Z,1012.33
2018-06-13T02:17:43.721Z,1012.35
2018-06-13T02:17:44.321Z,1012.37
2018-06-13T02:18:37.800Z,1012.28
2018-06-13T02:18:38.372Z,1012.30
2018-06-13T02:18:38.972Z,1012.33
2018-06-13T02:18:39.572Z,1012.27
2018-06-13T02:18:40.173Z,1012.28
2018-06-13T02:18:40.772Z,1012.28
2018-06-13T02:18:41.371Z,1012.29
2018-06-13T02:18:41.971Z,1012.29
2018-06-13T02:19:36.474Z,1012.31
2018-06-13T02:19:37.047Z,1012.30
2018-06-13T02:19:37.645Z,1012.31
2018-06-13T02:19:38.246Z,1012.34
2018-06-13T02:19:38.846Z,1012.28
2018-06-13T02:19:39.445Z,1012.33
2018-06-13T02:19:40.046Z,1012.33
2018-06-13T02:19:40.647Z,1012.34
2018-06-13T02:20:34.126Z,1012.29
2018-06-13T02:20:34.699Z,1012.28
2018-06-13T02:20:35.300Z,1012.31
2018-06-13T02:20:35.900Z,1012.31
2018-06-13T02:20:36.499Z,1012.31
2018-06-13T02:20:37.098Z,1012.32
2018-06-13T02:20:37.699Z,1012.27
2018-06-13T02:20:38.299Z,1012.28
2018-06-13T02:21:32.802Z,1012.29
2018-06-13T02:21:33.375Z,1012.29
2018-06-13T02:21:34.025Z,1012.28
2018-06-13T02:21:34.626Z,1012.27
2018-06-13T02:21:35.187Z,1012.27
2018-06-13T02:21:35.778Z,1012.31
2018-06-13T02:21:36.417Z,1012.23
2018-06-13T02:21:37.020Z,1012.28
2018-06-13T02:22:30.462Z,1012.25
2018-06-13T02:22:31.029Z,1012.28
2018-06-13T02:22:31.626Z,1012.27
2018-06-13T02:22:32.226Z,1012.28
2018-06-13T02:22:32.826Z,1012.25
2018-06-13T02:22:33.426Z,1012.26
2018-06-13T02:22:34.027Z,1012.23
2018-06-13T02:22:34.627Z,1012.25
2018-06-13T02:23:28.107Z,1012.23
2018-06-13T02:23:28.680Z,1012.25
2018-06-13T02:23:29.276Z,1012.23
2018-06-13T02:23:29.877Z,1012.23
2018-06-13T02:23:30.476Z,1012.22
2018-06-13T02:23:31.077Z,1012.26
2018-06-13T02:23:31.676Z,1012.25
2018-06-13T02:23:32.276Z,1012.21
2018-06-13T02:24:25.768Z,1012.24
2018-06-13T02:24:26.331Z,1012.23
2018-06-13T02:24:26.929Z,1012.25
2018-06-13T02:24:27.530Z,1012.27
2018-06-13T02:24:28.128Z,1012.23
2018-06-13T02:24:28.733Z,1012.28
2018-06-13T02:24:29.330Z,1012.24
2018-06-13T02:24:29.928Z,1012.23
2018-06-13T02:25:23.410Z,1012.21
2018-06-13T02:25:23.983Z,1012.20
2018-06-13T02:25:24.585Z,1012.18
2018-06-13T02:25:25.182Z,1012.22
2018-06-13T02:25:25.782Z,1012.17
2018-06-13T02:25:26.383Z,1012.17
2018-06-13T02:25:26.981Z,1012.18
2018-06-13T02:25:27.581Z,1012.22
2018-06-13T02:26:21.062Z,1012.25
2018-06-13T02:26:21.634Z,1012.23
2018-06-13T02:26:22.233Z,1012.22
2018-06-13T02:26:22.834Z,1012.22
2018-06-13T02:26:23.433Z,1012.23
2018-06-13T02:26:24.033Z,1012.24
2018-06-13T02:26:24.633Z,1012.23
2018-06-13T02:26:25.234Z,1012.21
2018-06-13T02:27:19.808Z,1012.21
2018-06-13T02:27:20.343Z,1012.18
2018-06-13T02:27:20.935Z,1012.19
2018-06-13T02:27:21.556Z,1012.22
2018-06-13T02:27:22.135Z,1012.20
2018-06-13T02:27:22.730Z,1012.19
2018-06-13T02:27:23.361Z,1012.19
2018-06-13T02:27:23.961Z,1012.19
2018-06-13T02:28:18.411Z,1012.21
2018-06-13T02:28:18.984Z,1012.19
2018-06-13T02:28:19.583Z,1012.20
2018-06-13T02:28:20.184Z,1012.22
2018-06-13T02:28:20.784Z,1012.18
2018-06-13T02:28:21.383Z,1012.20
2018-06-13T02:28:21.983Z,1012.20
2018-06-13T02:28:22.584Z,1012.20
2018-06-13T02:29:17.088Z,1012.19
2018-06-13T02:29:17.659Z,1012.17
2018-06-13T02:29:18.262Z,1012.21
2018-06-13T02:29:18.861Z,1012.21
2018-06-13T02:29:19.459Z,1012.21
2018-06-13T02:29:20.061Z,1012.22
2018-06-13T02:29:20.660Z,1012.21
2018-06-13T02:29:21.259Z,1012.22
2018-06-13T02:30:15.763Z,1012.20
2018-06-13T02:30:16.336Z,1012.22
2018-06-13T02:30:16.936Z,1012.22
2018-06-13T02:30:17.535Z,1012.25
2018-06-13T02:30:18.137Z,1012.24
2018-06-13T02:30:18.735Z,1012.23
2018-06-13T02:30:19.337Z,1012.23
2018-06-13T02:30:19.932Z,1012.21
2018-06-13T02:31:14.439Z,1012.23
2018-06-13T02:31:15.012Z,1012.24
2018-06-13T02:31:15.612Z,1012.23
2018-06-13T02:31:16.212Z,1012.25
2018-06-13T02:31:16.810Z,1012.21
2018-06-13T02:31:17.413Z,1012.19
2018-06-13T02:31:18.011Z,1012.23
2018-06-13T02:31:18.611Z,1012.29
2018-06-13T02:32:13.115Z,1012.23
2018-06-13T02:32:13.687Z,1012.24
2018-06-13T02:32:14.288Z,1012.28
2018-06-13T02:32:14.886Z,1012.23
2018-06-13T02:32:15.486Z,1012.23
2018-06-13T02:32:16.088Z,1012.25
2018-06-13T02:32:16.687Z,1012.22
2018-06-13T02:32:17.285Z,1012.26
2018-06-13T02:33:10.766Z,1012.22
2018-06-13T02:33:11.339Z,1012.22
2018-06-13T02:33:11.939Z,1012.26
2018-06-13T02:33:12.541Z,1012.28
2018-06-13T02:33:13.137Z,1012.28
2018-06-13T02:33:13.787Z,1012.25
2018-06-13T02:33:14.340Z,1012.25
2018-06-13T02:33:14.942Z,1012.27
2018-06-13T02:34:08.419Z,1012.27
2018-06-13T02:34:08.995Z,1012.26
2018-06-13T02:34:09.592Z,1012.25
2018-06-13T02:34:10.192Z,1012.25
2018-06-13T02:34:10.800Z,1012.26
2018-06-13T02:34:11.396Z,1012.24
2018-06-13T02:34:11.990Z,1012.28
2018-06-13T02:34:12.591Z,1012.28
2018-06-13T02:35:06.070Z,1012.30
2018-06-13T02:35:06.647Z,1012.27
2018-06-13T02:35:07.243Z,1012.26
2018-06-13T02:35:07.845Z,1012.27
2018-06-13T02:35:08.443Z,1012.32
2018-06-13T02:35:09.043Z,1012.28
2018-06-13T02:35:09.643Z,1012.29
2018-06-13T02:35:10.242Z,1012.25
2018-06-13T02:36:03.722Z,1012.27
2018-06-13T02:36:04.295Z,1012.28
2018-06-13T02:36:04.897Z,1012.27
2018-06-13T02:36:05.494Z,1012.23
2018-06-13T02:36:06.097Z,1012.27
2018-06-13T02:36:06.693Z,1012.28
2018-06-13T02:36:07.292Z,1012.27
2018-06-13T02:36:07.894Z,1012.25
2018-06-13T02:37:02.399Z,1012.30
2018-06-13T02:37:02.969Z,1012.27
2018-06-13T02:37:03.571Z,1012.28
2018-06-13T02:37:04.171Z,1012.26
2018-06-13T02:37:04.768Z,1012.28
2018-06-13T02:37:05.369Z,1012.29
2018-06-13T02:37:05.971Z,1012.28
2018-06-13T02:37:06.569Z,1012.29
2018-06-13T02:38:00.049Z,1012.27
2018-06-13T02:38:00.622Z,1012.26
2018-06-13T02:38:01.222Z,1012.28
2018-06-13T02:38:01.825Z,1012.28
2018-06-13T02:38:02.420Z,1012.29
2018-06-13T02:38:03.020Z,1012.28
2018-06-13T02:38:03.621Z,1012.31
2018-06-13T02:38:04.221Z,1012.25
2018-06-13T02:38:58.723Z,1012.28
2018-06-13T02:38:59.296Z,1012.27
2018-06-13T02:38:59.896Z,1012.29
2018-06-13T02:39:00.496Z,1012.27
2018-06-13T02:39:01.095Z,1012.28
2018-06-13T02:39:01.699Z,1012.25
2018-06-13T02:39:02.293Z,1012.29
2018-06-13T02:39:02.895Z,1012.27
2018-06-13T02:39:56.378Z,1012.26
2018-06-13T02:39:56.948Z,1012.24
2018-06-13T02:39:57.549Z,1012.21
2018-06-13T02:39:58.149Z,1012.22
2018-06-13T02:39:58.748Z,1012.23
2018-06-13T02:39:59.350Z,1012.26
2018-06-13T02:39:59.948Z,1012.27
2018-06-13T02:40:00.552Z,1012.23
2018-06-13T02:40:54.028Z,1012.25
2018-06-13T02:40:54.601Z,1012.24
2018-06-13T02:40:55.207Z,1012.25
2018-06-13T02:40:55.802Z,1012.21
2018-06-13T02:40:56.403Z,1012.23
2018-06-13T02:40:56.998Z,1012.25
2018-06-13T02:40:57.598Z,1012.23
2018-06-13T02:40:58.199Z,1012.21
2018-06-13T02:41:52.704Z,1012.23
2018-06-13T02:41:53.280Z,1012.25
2018-06-13T02:41:53.877Z,1012.19
2018-06-13T02:41:54.477Z,1012.22
2018-06-13T02:41:55.075Z,1012.26
2018-06-13T02:41:55.675Z,1012.23
2018-06-13T02:41:56.278Z,1012.22
2018-06-13T02:41:56.877Z,1012.22
2018-06-13T02:42:50.356Z,1012.18
2018-06-13T02:42:50.929Z,1012.20
2018-06-13T02:42:51.528Z,1012.22
2018-06-13T02:42:52.129Z,1012.21
2018-06-13T02:42:52.727Z,1012.19
2018-06-13T02:42:53.328Z,1012.21
2018-06-13T02:42:53.929Z,1012.20
2018-06-13T02:42:54.527Z,1012.22
2018-06-13T02:43:48.013Z,1012.21
2018-06-13T02:43:48.581Z,1012.22
2018-06-13T02:43:49.180Z,1012.19
2018-06-13T02:43:49.780Z,1012.20
2018-06-13T02:43:50.379Z,1012.19
2018-06-13T02:43:50.979Z,1012.22
2018-06-13T02:43:51.579Z,1012.24
2018-06-13T02:43:52.180Z,1012.15
2018-06-13T02:44:45.659Z,1012.16
2018-06-13T02:44:46.231Z,1012.18
2018-06-13T02:44:46.834Z,1012.19
2018-06-13T02:44:47.433Z,1012.19
2018-06-13T02:44:48.031Z,1012.18
2018-06-13T02:44:48.632Z,1012.19
2018-06-13T02:44:49.230Z,1012.18
2018-06-13T02:44:49.831Z,1012.17
2018-06-13T02:45:44.335Z,1012.15
2018-06-13T02:45:44.907Z,1012.17
2018-06-13T02:45:45.507Z,1012.15
2018-06-13T02:45:46.107Z,1012.16
2018-06-13T02:45:46.706Z,1012.16
2018-06-13T02:45:47.309Z,1012.14
2018-06-13T02:45:47.910Z,1012.21
2018-06-13T02:45:48.506Z,1012.15
2018-06-13T02:46:41.987Z,1012.18
2018-06-13T02:46:42.566Z,1012.17
2018-06-13T02:46:43.159Z,1012.23
2018-06-13T02:46:43.760Z,1012.23
2018-06-13T02:46:44.360Z,1012.21
2018-06-13T02:46:44.959Z,1012.19
2018-06-13T02:46:45.562Z,1012.23
2018-06-13T02:46:46.167Z,1012.19
2018-06-13T02:47:39.640Z,1012.19
2018-06-13T02:47:40.213Z,1012.23
2018-06-13T02:47:40.811Z,1012.22
2018-06-13T02:47:41.411Z,1012.22
2018-06-13T02:47:42.011Z,1012.20
2018-06-13T02:47:42.611Z,1012.16
2018-06-13T02:47:43.209Z,1012.21
2018-06-13T02:47:43.810Z,1012.17
2018-06-13T02:48:37.806Z,1012.20
2018-06-13T02:48:38.373Z,1012.19
2018-06-13T02:48:38.974Z,1012.21
2018-06-13T02:48:39.573Z,1012.18
2018-06-13T02:48:40.175Z,1012.18
2018-06-13T02:48:40.773Z,1012.19
2018-06-13T02:48:41.374Z,1012.20
2018-06-13T02:49:35.864Z,1012.21
2018-06-13T02:49:36.435Z,1012.17
2018-06-13T02:49:37.035Z,1012.23
2018-06-13T02:49:37.635Z,1012.16
2018-06-13T02:49:38.233Z,1012.20
2018-06-13T02:49:38.836Z,1012.19
2018-06-13T02:49:39.436Z,1012.21
2018-06-13T02:49:40.037Z,1012.17
2018-06-13T02:50:33.518Z,1012.19
2018-06-13T02:50:34.087Z,1012.21
2018-06-13T02:50:34.687Z,1012.19
2018-06-13T02:50:35.287Z,1012.22
2018-06-13T02:50:35.889Z,1012.21
2018-06-13T02:50:36.486Z,1012.22
2018-06-13T02:50:37.085Z,1012.23
2018-06-13T02:50:37.686Z,1012.15
2018-06-13T02:51:31.170Z,1012.19
2018-06-13T02:51:31.740Z,1012.20
2018-06-13T02:51:32.343Z,1012.21
2018-06-13T02:51:32.939Z,1012.19
2018-06-13T02:51:33.539Z,1012.19
2018-06-13T02:51:34.139Z,1012.17
2018-06-13T02:51:34.739Z,1012.22
2018-06-13T02:51:35.339Z,1012.22
2018-06-13T02:52:29.843Z,1012.19
2018-06-13T02:52:30.414Z,1012.19
2018-06-13T02:52:31.013Z,1012.21
2018-06-13T02:52:31.615Z,1012.19
2018-06-13T02:52:32.214Z,1012.19
2018-06-13T02:52:32.814Z,1012.17
2018-06-13T02:52:33.413Z,1012.19
2018-06-13T02:52:34.013Z,1012.17
2018-06-13T02:53:28.517Z,1012.16
2018-06-13T02:53:29.089Z,1012.20
2018-06-13T02:53:29.690Z,1012.17
2018-06-13T02:53:30.294Z,1012.20
2018-06-13T02:53:30.892Z,1012.16
2018-06-13T02:53:31.508Z,1012.19
2018-06-13T02:53:32.088Z,1012.13
2018-06-13T02:53:32.689Z,1012.18
2018-06-13T02:54:27.193Z,1012.15
2018-06-13T02:54:27.765Z,1012.15
2018-06-13T02:54:28.366Z,1012.16
2018-06-13T02:54:28.966Z,1012.16
2018-06-13T02:54:29.565Z,1012.18
2018-06-13T02:54:30.167Z,1012.20
2018-06-13T02:54:30.774Z,1012.15
2018-06-13T02:54:31.365Z,1012.17
2018-06-13T02:55:25.868Z,1012.16
2018-06-13T02:55:26.440Z,1012.14
2018-06-13T02:55:27.040Z,1012.13
2018-06-13T02:55:27.643Z,1012.14
2018-06-13T02:55:28.241Z,1012.13
2018-06-13T02:55:28.840Z,1012.12
2018-06-13T02:55:29.440Z,1012.16
2018-06-13T02:55:30.041Z,1012.13
2018-06-13T02:56:24.033Z,1012.20
2018-06-13T02:56:24.609Z,1012.17
2018-06-13T02:56:25.207Z,1012.20
2018-06-13T02:56:25.805Z,1012.21
2018-06-13T02:56:26.404Z,1012.20
2018-06-13T02:56:27.004Z,1012.19
2018-06-13T02:56:27.607Z,1012.20
2018-06-13T02:57:21.174Z,1012.20
2018-06-13T02:57:21.746Z,1012.22
2018-06-13T02:57:22.345Z,1012.22
2018-06-13T02:57:22.946Z,1012.22
2018-06-13T02:57:23.545Z,1012.21
2018-06-13T02:57:24.146Z,1012.21
2018-06-13T02:57:24.745Z,1012.22
2018-06-13T02:57:25.345Z,1012.20
2018-06-13T02:58:18.824Z,1012.24
2018-06-13T02:58:19.397Z,1012.23
2018-06-13T02:58:19.996Z,1012.24
2018-06-13T02:58:20.597Z,1012.24
2018-06-13T02:58:21.202Z,1012.20
2018-06-13T02:58:21.796Z,1012.22
2018-06-13T02:58:22.396Z,1012.18
2018-06-13T02:58:22.999Z,1012.22